Warthen, Georgia
Current Conditions -  °F | °C
As of 9:35 AM on Thursday 30 Oct 2014 (Local Time) from KOKZ Reporting Station
Clear Clear  
Wind Chill: 54°   Ceiling: Unl
Heat Index: 54°   Visibility: 10mi
Dew Point: 48°   Wind: 3mph
Humidity: 79%   Direction: 20°NNE
Pressure: 30.07"   Gusts: NA
Location:  33.1°N, 82.8°W
Report Text: KOKZ 301335Z AUTO 02003KT 10SM CLR 12/09 A3007 RMK AO2 T01230087
Loading
Personal Weather Stations






























Interactive Weather Map
Tropical Storm Tracking
New forecast layout! Learn more

10-Day Weather Forecast

Advertisements
Track Severe Weather on mobile